sensor_id;sensor_type;location;lat;lon;timestamp;P1;durP1;ratioP1;P2;durP2;ratioP2
45676;SDS011;31390;51.186;6.830;2023-05-10T00:00:23;2.13;;;1.10;;
45676;SDS011;31390;51.186;6.830;2023-05-10T00:02:50;2.47;;;1.20;;
45676;SDS011;31390;51.186;6.830;2023-05-10T00:05:17;3.08;;;0.90;;
45676;SDS011;31390;51.186;6.830;2023-05-10T00:07:43;2.50;;;1.13;;
45676;SDS011;31390;51.186;6.830;2023-05-10T00:10:11;3.78;;;1.08;;
45676;SDS011;31390;51.186;6.830;2023-05-10T00:12:37;3.63;;;1.13;;
45676;SDS011;31390;51.186;6.830;2023-05-10T00:15:04;1.92;;;0.90;;
45676;SDS011;31390;51.186;6.830;2023-05-10T00:17:31;2.30;;;1.05;;
45676;SDS011;31390;51.186;6.830;2023-05-10T00:19:58;2.58;;;1.23;;
45676;SDS011;31390;51.186;6.830;2023-05-10T00:22:25;5.75;;;1.50;;
45676;SDS011;31390;51.186;6.830;2023-05-10T00:24:51;2.45;;;1.35;;
45676;SDS011;31390;51.186;6.830;2023-05-10T00:27:18;4.35;;;1.25;;
45676;SDS011;31390;51.186;6.830;2023-05-10T00:29:44;4.18;;;1.33;;
45676;SDS011;31390;51.186;6.830;2023-05-10T00:32:11;2.65;;;1.13;;
45676;SDS011;31390;51.186;6.830;2023-05-10T00:34:38;4.85;;;1.20;;
45676;SDS011;31390;51.186;6.830;2023-05-10T00:37:04;3.15;;;1.27;;
45676;SDS011;31390;51.186;6.830;2023-05-10T00:39:32;2.80;;;1.00;;
45676;SDS011;31390;51.186;6.830;2023-05-10T00:41:58;3.03;;;1.05;;
45676;SDS011;31390;51.186;6.830;2023-05-10T00:44:26;2.83;;;1.25;;
45676;SDS011;31390;51.186;6.830;2023-05-10T00:46:53;4.05;;;1.10;;
45676;SDS011;31390;51.186;6.830;2023-05-10T00:49:20;4.20;;;1.33;;
45676;SDS011;31390;51.186;6.830;2023-05-10T00:51:48;4.82;;;1.40;;
45676;SDS011;31390;51.186;6.830;2023-05-10T00:54:16;2.83;;;1.10;;
45676;SDS011;31390;51.186;6.830;2023-05-10T00:56:43;3.28;;;1.35;;
45676;SDS011;31390;51.186;6.830;2023-05-10T00:59:15;4.72;;;1.33;;
45676;SDS011;31390;51.186;6.830;2023-05-10T01:01:46;3.80;;;1.50;;
45676;SDS011;31390;51.186;6.830;2023-05-10T01:04:13;3.97;;;1.15;;
45676;SDS011;31390;51.186;6.830;2023-05-10T01:06:41;2.67;;;1.33;;
45676;SDS011;31390;51.186;6.830;2023-05-10T01:09:07;4.10;;;1.38;;
45676;SDS011;31390;51.186;6.830;2023-05-10T01:11:34;3.15;;;1.30;;
45676;SDS011;31390;51.186;6.830;2023-05-10T01:14:01;3.58;;;1.60;;
45676;SDS011;31390;51.186;6.830;2023-05-10T01:16:29;2.65;;;1.23;;
45676;SDS011;31390;51.186;6.830;2023-05-10T01:18:56;4.22;;;1.20;;
45676;SDS011;31390;51.186;6.830;2023-05-10T01:34:33;1.45;;;1.17;;
45676;SDS011;31390;51.186;6.830;2023-05-10T01:37:09;3.22;;;0.98;;
45676;SDS011;31390;51.186;6.830;2023-05-10T01:39:55;2.38;;;1.38;;
45676;SDS011;31390;51.186;6.830;2023-05-10T01:42:25;2.78;;;1.17;;
45676;SDS011;31390;51.186;6.830;2023-05-10T01:45:27;3.00;;;1.40;;
45676;SDS011;31390;51.186;6.830;2023-05-10T01:50:32;2.40;;;1.15;;
45676;SDS011;31390;51.186;6.830;2023-05-10T01:52:59;2.90;;;1.08;;
45676;SDS011;31390;51.186;6.830;2023-05-10T01:55:28;1.88;;;1.30;;
45676;SDS011;31390;51.186;6.830;2023-05-10T01:58:08;3.10;;;1.40;;
45676;SDS011;31390;51.186;6.830;2023-05-10T02:00:35;4.07;;;1.40;;
45676;SDS011;31390;51.186;6.830;2023-05-10T02:03:03;3.00;;;1.42;;
45676;SDS011;31390;51.186;6.830;2023-05-10T02:05:30;2.97;;;1.60;;
45676;SDS011;31390;51.186;6.830;2023-05-10T02:07:58;6.22;;;1.48;;
45676;SDS011;31390;51.186;6.830;2023-05-10T02:10:27;4.85;;;1.67;;
45676;SDS011;31390;51.186;6.830;2023-05-10T02:12:54;2.65;;;1.65;;
45676;SDS011;31390;51.186;6.830;2023-05-10T02:15:22;2.33;;;1.45;;
45676;SDS011;31390;51.186;6.830;2023-05-10T02:17:49;1.63;;;1.08;;
45676;SDS011;31390;51.186;6.830;2023-05-10T02:20:16;3.53;;;1.27;;
45676;SDS011;31390;51.186;6.830;2023-05-10T02:22:44;2.80;;;1.30;;
45676;SDS011;31390;51.186;6.830;2023-05-10T02:25:12;3.85;;;1.27;;
45676;SDS011;31390;51.186;6.830;2023-05-10T02:27:39;4.70;;;1.40;;
45676;SDS011;31390;51.186;6.830;2023-05-10T02:30:07;2.65;;;1.00;;
45676;SDS011;31390;51.186;6.830;2023-05-10T02:32:33;3.78;;;1.50;;
45676;SDS011;31390;51.186;6.830;2023-05-10T02:35:01;4.80;;;1.30;;
45676;SDS011;31390;51.186;6.830;2023-05-10T02:37:29;2.67;;;1.17;;
45676;SDS011;31390;51.186;6.830;2023-05-10T02:39:55;3.65;;;1.33;;
45676;SDS011;31390;51.186;6.830;2023-05-10T02:42:24;5.22;;;1.48;;
45676;SDS011;31390;51.186;6.830;2023-05-10T02:44:52;3.55;;;1.50;;
45676;SDS011;31390;51.186;6.830;2023-05-10T02:47:19;2.22;;;1.30;;
45676;SDS011;31390;51.186;6.830;2023-05-10T02:49:47;3.53;;;1.35;;
45676;SDS011;31390;51.186;6.830;2023-05-10T02:52:15;3.53;;;1.33;;
45676;SDS011;31390;51.186;6.830;2023-05-10T02:54:46;2.97;;;1.60;;
45676;SDS011;31390;51.186;6.830;2023-05-10T02:57:20;2.65;;;1.30;;
45676;SDS011;31390;51.186;6.830;2023-05-10T02:59:48;2.35;;;1.10;;
45676;SDS011;31390;51.186;6.830;2023-05-10T03:02:15;3.10;;;1.10;;
45676;SDS011;31390;51.186;6.830;2023-05-10T03:04:41;3.88;;;1.23;;
45676;SDS011;31390;51.186;6.830;2023-05-10T03:07:08;5.05;;;1.30;;
45676;SDS011;31390;51.186;6.830;2023-05-10T03:09:35;2.90;;;1.00;;
45676;SDS011;31390;51.186;6.830;2023-05-10T03:19:47;2.95;;;1.30;;
45676;SDS011;31390;51.186;6.830;2023-05-10T03:22:23;1.73;;;1.00;;
45676;SDS011;31390;51.186;6.830;2023-05-10T03:24:51;2.33;;;0.95;;
45676;SDS011;31390;51.186;6.830;2023-05-10T03:27:19;2.45;;;1.05;;
45676;SDS011;31390;51.186;6.830;2023-05-10T03:29:46;3.28;;;1.35;;
45676;SDS011;31390;51.186;6.830;2023-05-10T03:32:13;1.98;;;0.98;;
45676;SDS011;31390;51.186;6.830;2023-05-10T03:34:43;5.65;;;1.33;;
45676;SDS011;31390;51.186;6.830;2023-05-10T03:37:09;2.40;;;1.15;;
45676;SDS011;31390;51.186;6.830;2023-05-10T03:39:36;1.42;;;1.10;;
45676;SDS011;31390;51.186;6.830;2023-05-10T03:42:05;2.15;;;1.20;;
45676;SDS011;31390;51.186;6.830;2023-05-10T03:44:32;3.13;;;1.17;;
45676;SDS011;31390;51.186;6.830;2023-05-10T03:46:59;1.67;;;0.80;;
45676;SDS011;31390;51.186;6.830;2023-05-10T03:49:26;6.05;;;0.70;;
45676;SDS011;31390;51.186;6.830;2023-05-10T03:51:52;4.07;;;1.30;;
45676;SDS011;31390;51.186;6.830;2023-05-10T03:54:19;1.40;;;0.85;;
45676;SDS011;31390;51.186;6.830;2023-05-10T03:56:46;2.03;;;1.00;;
45676;SDS011;31390;51.186;6.830;2023-05-10T03:59:15;3.28;;;1.00;;
45676;SDS011;31390;51.186;6.830;2023-05-10T04:01:41;2.88;;;1.30;;
45676;SDS011;31390;51.186;6.830;2023-05-10T04:04:08;1.75;;;0.93;;
45676;SDS011;31390;51.186;6.830;2023-05-10T04:06:34;2.78;;;1.00;;
45676;SDS011;31390;51.186;6.830;2023-05-10T04:09:01;2.70;;;0.75;;
45676;SDS011;31390;51.186;6.830;2023-05-10T04:11:30;2.88;;;1.15;;
45676;SDS011;31390;51.186;6.830;2023-05-10T04:13:57;3.83;;;1.38;;
45676;SDS011;31390;51.186;6.830;2023-05-10T04:16:23;3.17;;;1.38;;
45676;SDS011;31390;51.186;6.830;2023-05-10T04:18:49;3.55;;;1.10;;
45676;SDS011;31390;51.186;6.830;2023-05-10T04:21:16;3.13;;;1.30;;
45676;SDS011;31390;51.186;6.830;2023-05-10T04:23:43;2.55;;;1.25;;
45676;SDS011;31390;51.186;6.830;2023-05-10T04:26:09;3.38;;;1.80;;
45676;SDS011;31390;51.186;6.830;2023-05-10T04:28:36;3.80;;;1.58;;
45676;SDS011;31390;51.186;6.830;2023-05-10T04:31:03;5.45;;;1.20;;
45676;SDS011;31390;51.186;6.830;2023-05-10T04:33:30;4.13;;;1.40;;
45676;SDS011;31390;51.186;6.830;2023-05-10T04:36:04;3.97;;;1.42;;
45676;SDS011;31390;51.186;6.830;2023-05-10T04:38:30;3.30;;;1.33;;
45676;SDS011;31390;51.186;6.830;2023-05-10T04:41:07;5.00;;;1.98;;
45676;SDS011;31390;51.186;6.830;2023-05-10T04:43:33;5.78;;;1.80;;
45676;SDS011;31390;51.186;6.830;2023-05-10T04:46:00;5.20;;;1.75;;
45676;SDS011;31390;51.186;6.830;2023-05-10T04:48:27;4.50;;;1.83;;
45676;SDS011;31390;51.186;6.830;2023-05-10T04:50:53;8.70;;;1.65;;
45676;SDS011;31390;51.186;6.830;2023-05-10T04:53:20;7.53;;;1.65;;
45676;SDS011;31390;51.186;6.830;2023-05-10T04:55:46;3.80;;;1.70;;
45676;SDS011;31390;51.186;6.830;2023-05-10T04:58:13;7.35;;;2.40;;
45676;SDS011;31390;51.186;6.830;2023-05-10T05:00:40;4.95;;;1.95;;
45676;SDS011;31390;51.186;6.830;2023-05-10T05:03:06;4.60;;;1.88;;
45676;SDS011;31390;51.186;6.830;2023-05-10T05:05:33;5.57;;;2.00;;
45676;SDS011;31390;51.186;6.830;2023-05-10T05:07:59;8.43;;;1.92;;
45676;SDS011;31390;51.186;6.830;2023-05-10T05:10:26;7.13;;;2.08;;
45676;SDS011;31390;51.186;6.830;2023-05-10T05:12:53;5.93;;;2.80;;
45676;SDS011;31390;51.186;6.830;2023-05-10T05:15:19;5.70;;;2.40;;
45676;SDS011;31390;51.186;6.830;2023-05-10T05:17:46;3.00;;;1.70;;
45676;SDS011;31390;51.186;6.830;2023-05-10T05:20:12;9.48;;;3.03;;
45676;SDS011;31390;51.186;6.830;2023-05-10T05:22:39;9.30;;;2.50;;
45676;SDS011;31390;51.186;6.830;2023-05-10T05:25:06;9.85;;;2.65;;
45676;SDS011;31390;51.186;6.830;2023-05-10T05:27:32;5.40;;;2.17;;
45676;SDS011;31390;51.186;6.830;2023-05-10T05:29:59;6.13;;;2.70;;
45676;SDS011;31390;51.186;6.830;2023-05-10T05:32:25;7.18;;;3.10;;
45676;SDS011;31390;51.186;6.830;2023-05-10T05:34:52;8.40;;;2.63;;
45676;SDS011;31390;51.186;6.830;2023-05-10T05:37:19;5.20;;;2.40;;
45676;SDS011;31390;51.186;6.830;2023-05-10T05:39:47;5.88;;;2.80;;
45676;SDS011;31390;51.186;6.830;2023-05-10T05:42:14;3.75;;;2.17;;
45676;SDS011;31390;51.186;6.830;2023-05-10T05:44:42;6.88;;;2.67;;
45676;SDS011;31390;51.186;6.830;2023-05-10T05:47:08;5.57;;;2.45;;
45676;SDS011;31390;51.186;6.830;2023-05-10T05:49:35;5.53;;;1.95;;
45676;SDS011;31390;51.186;6.830;2023-05-10T05:52:03;5.03;;;2.13;;
45676;SDS011;31390;51.186;6.830;2023-05-10T05:54:30;4.05;;;2.15;;
45676;SDS011;31390;51.186;6.830;2023-05-10T05:56:57;5.30;;;2.55;;
45676;SDS011;31390;51.186;6.830;2023-05-10T05:59:26;5.00;;;2.63;;
45676;SDS011;31390;51.186;6.830;2023-05-10T06:01:53;5.78;;;2.85;;
45676;SDS011;31390;51.186;6.830;2023-05-10T06:04:19;4.47;;;2.30;;
45676;SDS011;31390;51.186;6.830;2023-05-10T06:06:46;3.75;;;2.28;;
45676;SDS011;31390;51.186;6.830;2023-05-10T06:09:13;4.80;;;2.70;;
45676;SDS011;31390;51.186;6.830;2023-05-10T06:11:39;6.30;;;2.38;;
45676;SDS011;31390;51.186;6.830;2023-05-10T06:14:06;6.00;;;3.08;;
45676;SDS011;31390;51.186;6.830;2023-05-10T06:16:35;4.03;;;2.40;;
45676;SDS011;31390;51.186;6.830;2023-05-10T06:19:02;4.05;;;2.30;;
45676;SDS011;31390;51.186;6.830;2023-05-10T06:21:28;3.60;;;2.08;;
45676;SDS011;31390;51.186;6.830;2023-05-10T06:23:55;4.07;;;2.70;;
45676;SDS011;31390;51.186;6.830;2023-05-10T06:26:22;4.53;;;2.65;;
45676;SDS011;31390;51.186;6.830;2023-05-10T06:28:48;6.22;;;2.60;;
45676;SDS011;31390;51.186;6.830;2023-05-10T06:31:15;7.30;;;2.72;;
45676;SDS011;31390;51.186;6.830;2023-05-10T06:33:42;5.55;;;2.08;;
45676;SDS011;31390;51.186;6.830;2023-05-10T06:36:08;5.07;;;2.67;;
45676;SDS011;31390;51.186;6.830;2023-05-10T06:38:35;6.30;;;2.50;;
45676;SDS011;31390;51.186;6.830;2023-05-10T06:41:01;2.90;;;2.05;;
45676;SDS011;31390;51.186;6.830;2023-05-10T06:43:28;4.68;;;2.30;;
45676;SDS011;31390;51.186;6.830;2023-05-10T06:45:55;4.57;;;2.28;;
45676;SDS011;31390;51.186;6.830;2023-05-10T06:48:22;5.93;;;2.17;;
45676;SDS011;31390;51.186;6.830;2023-05-10T06:50:48;4.13;;;2.20;;
45676;SDS011;31390;51.186;6.830;2023-05-10T06:53:15;4.32;;;1.65;;
45676;SDS011;31390;51.186;6.830;2023-05-10T06:55:42;6.88;;;2.00;;
45676;SDS011;31390;51.186;6.830;2023-05-10T06:58:08;4.63;;;2.28;;
45676;SDS011;31390;51.186;6.830;2023-05-10T07:00:35;3.33;;;1.85;;
45676;SDS011;31390;51.186;6.830;2023-05-10T07:03:05;6.40;;;2.33;;
45676;SDS011;31390;51.186;6.830;2023-05-10T07:05:32;5.90;;;2.10;;
45676;SDS011;31390;51.186;6.830;2023-05-10T07:07:58;4.32;;;2.03;;
45676;SDS011;31390;51.186;6.830;2023-05-10T07:10:25;3.05;;;1.42;;
45676;SDS011;31390;51.186;6.830;2023-05-10T07:12:51;4.10;;;2.20;;
45676;SDS011;31390;51.186;6.830;2023-05-10T07:15:18;5.05;;;2.00;;
45676;SDS011;31390;51.186;6.830;2023-05-10T07:17:45;6.35;;;1.98;;
45676;SDS011;31390;51.186;6.830;2023-05-10T07:20:12;7.60;;;2.13;;
45676;SDS011;31390;51.186;6.830;2023-05-10T07:22:38;5.63;;;2.53;;
45676;SDS011;31390;51.186;6.830;2023-05-10T07:25:05;7.53;;;2.05;;
45676;SDS011;31390;51.186;6.830;2023-05-10T07:27:32;5.95;;;2.70;;
45676;SDS011;31390;51.186;6.830;2023-05-10T07:29:58;3.45;;;2.25;;
45676;SDS011;31390;51.186;6.830;2023-05-10T07:32:25;6.30;;;2.78;;
45676;SDS011;31390;51.186;6.830;2023-05-10T07:34:52;6.47;;;2.20;;
45676;SDS011;31390;51.186;6.830;2023-05-10T07:37:18;7.07;;;2.30;;
45676;SDS011;31390;51.186;6.830;2023-05-10T07:39:45;5.63;;;2.22;;
45676;SDS011;31390;51.186;6.830;2023-05-10T07:42:11;4.32;;;2.28;;
45676;SDS011;31390;51.186;6.830;2023-05-10T07:44:38;3.88;;;2.00;;
45676;SDS011;31390;51.186;6.830;2023-05-10T07:47:04;4.93;;;2.40;;
45676;SDS011;31390;51.186;6.830;2023-05-10T07:49:30;4.80;;;2.13;;
45676;SDS011;31390;51.186;6.830;2023-05-10T07:51:57;4.40;;;2.15;;
45676;SDS011;31390;51.186;6.830;2023-05-10T07:54:26;3.42;;;2.10;;
45676;SDS011;31390;51.186;6.830;2023-05-10T07:56:53;3.00;;;1.95;;
45676;SDS011;31390;51.186;6.830;2023-05-10T07:59:19;4.20;;;2.03;;
45676;SDS011;31390;51.186;6.830;2023-05-10T08:01:46;3.28;;;1.95;;
45676;SDS011;31390;51.186;6.830;2023-05-10T08:04:13;5.95;;;2.53;;
45676;SDS011;31390;51.186;6.830;2023-05-10T08:06:39;7.97;;;2.70;;
45676;SDS011;31390;51.186;6.830;2023-05-10T08:09:06;6.47;;;3.13;;
45676;SDS011;31390;51.186;6.830;2023-05-10T08:11:33;5.93;;;2.70;;
45676;SDS011;31390;51.186;6.830;2023-05-10T08:14:00;7.47;;;2.88;;
45676;SDS011;31390;51.186;6.830;2023-05-10T08:16:27;6.60;;;2.72;;
45676;SDS011;31390;51.186;6.830;2023-05-10T08:18:53;7.95;;;2.45;;
45676;SDS011;31390;51.186;6.830;2023-05-10T08:21:21;7.90;;;3.55;;
45676;SDS011;31390;51.186;6.830;2023-05-10T08:23:48;8.13;;;3.17;;
45676;SDS011;31390;51.186;6.830;2023-05-10T08:26:15;9.45;;;3.35;;
45676;SDS011;31390;51.186;6.830;2023-05-10T08:28:41;10.73;;;3.88;;
45676;SDS011;31390;51.186;6.830;2023-05-10T08:31:08;10.98;;;3.72;;
45676;SDS011;31390;51.186;6.830;2023-05-10T08:33:35;9.68;;;3.58;;
45676;SDS011;31390;51.186;6.830;2023-05-10T08:36:01;8.93;;;3.60;;
45676;SDS011;31390;51.186;6.830;2023-05-10T08:38:28;7.40;;;3.63;;
45676;SDS011;31390;51.186;6.830;2023-05-10T08:40:54;7.85;;;3.97;;
45676;SDS011;31390;51.186;6.830;2023-05-10T08:43:28;8.27;;;3.40;;
45676;SDS011;31390;51.186;6.830;2023-05-10T08:45:56;11.52;;;3.97;;
45676;SDS011;31390;51.186;6.830;2023-05-10T08:48:26;10.93;;;4.13;;
45676;SDS011;31390;51.186;6.830;2023-05-10T08:50:54;10.35;;;4.13;;
45676;SDS011;31390;51.186;6.830;2023-05-10T08:53:24;9.55;;;3.97;;
45676;SDS011;31390;51.186;6.830;2023-05-10T08:55:52;13.80;;;3.92;;
45676;SDS011;31390;51.186;6.830;2023-05-10T08:58:19;7.38;;;3.67;;
45676;SDS011;31390;51.186;6.830;2023-05-10T09:00:46;8.32;;;3.72;;
45676;SDS011;31390;51.186;6.830;2023-05-10T09:03:13;7.00;;;3.67;;
45676;SDS011;31390;51.186;6.830;2023-05-10T09:05:39;8.82;;;4.13;;
45676;SDS011;31390;51.186;6.830;2023-05-10T09:08:07;7.55;;;3.67;;
45676;SDS011;31390;51.186;6.830;2023-05-10T09:10:34;8.68;;;3.42;;
45676;SDS011;31390;51.186;6.830;2023-05-10T09:13:01;9.35;;;3.92;;
45676;SDS011;31390;51.186;6.830;2023-05-10T09:15:28;6.97;;;3.38;;
45676;SDS011;31390;51.186;6.830;2023-05-10T09:17:55;7.90;;;3.95;;
45676;SDS011;31390;51.186;6.830;2023-05-10T09:20:22;10.02;;;3.63;;
45676;SDS011;31390;51.186;6.830;2023-05-10T09:22:48;8.60;;;3.67;;
45676;SDS011;31390;51.186;6.830;2023-05-10T09:25:16;7.13;;;3.95;;
45676;SDS011;31390;51.186;6.830;2023-05-10T09:27:46;7.10;;;3.45;;
45676;SDS011;31390;51.186;6.830;2023-05-10T09:30:31;6.95;;;3.75;;
45676;SDS011;31390;51.186;6.830;2023-05-10T09:32:58;7.45;;;3.63;;
45676;SDS011;31390;51.186;6.830;2023-05-10T09:35:27;10.30;;;4.88;;
45676;SDS011;31390;51.186;6.830;2023-05-10T09:37:56;6.75;;;3.58;;
45676;SDS011;31390;51.186;6.830;2023-05-10T09:40:24;7.40;;;3.88;;
45676;SDS011;31390;51.186;6.830;2023-05-10T09:43:05;7.72;;;3.85;;
45676;SDS011;31390;51.186;6.830;2023-05-10T09:45:33;8.27;;;3.40;;
45676;SDS011;31390;51.186;6.830;2023-05-10T09:48:04;4.97;;;3.00;;
45676;SDS011;31390;51.186;6.830;2023-05-10T09:50:30;6.43;;;3.15;;
45676;SDS011;31390;51.186;6.830;2023-05-10T09:52:58;5.32;;;3.20;;
45676;SDS011;31390;51.186;6.830;2023-05-10T09:55:26;7.65;;;3.30;;
45676;SDS011;31390;51.186;6.830;2023-05-10T09:57:59;5.90;;;3.67;;
45676;SDS011;31390;51.186;6.830;2023-05-10T10:00:26;5.90;;;3.20;;
45676;SDS011;31390;51.186;6.830;2023-05-10T10:02:54;5.78;;;2.95;;
45676;SDS011;31390;51.186;6.830;2023-05-10T10:05:27;5.95;;;3.25;;
45676;SDS011;31390;51.186;6.830;2023-05-10T10:07:54;6.95;;;3.78;;
45676;SDS011;31390;51.186;6.830;2023-05-10T10:10:21;9.52;;;4.43;;
45676;SDS011;31390;51.186;6.830;2023-05-10T10:12:48;6.05;;;3.53;;
45676;SDS011;31390;51.186;6.830;2023-05-10T10:15:14;6.65;;;3.30;;
45676;SDS011;31390;51.186;6.830;2023-05-10T10:17:42;5.22;;;2.88;;
45676;SDS011;31390;51.186;6.830;2023-05-10T10:20:09;5.30;;;3.10;;
45676;SDS011;31390;51.186;6.830;2023-05-10T10:22:37;6.63;;;3.38;;
45676;SDS011;31390;51.186;6.830;2023-05-10T10:25:04;6.97;;;3.30;;
45676;SDS011;31390;51.186;6.830;2023-05-10T10:30:04;7.05;;;3.05;;
45676;SDS011;31390;51.186;6.830;2023-05-10T10:32:41;6.13;;;3.50;;
45676;SDS011;31390;51.186;6.830;2023-05-10T10:35:12;8.48;;;3.92;;
45676;SDS011;31390;51.186;6.830;2023-05-10T10:37:45;6.90;;;3.42;;
45676;SDS011;31390;51.186;6.830;2023-05-10T10:42:54;6.47;;;3.38;;
45676;SDS011;31390;51.186;6.830;2023-05-10T10:45:20;6.60;;;3.90;;
45676;SDS011;31390;51.186;6.830;2023-05-10T10:47:47;5.78;;;3.33;;
45676;SDS011;31390;51.186;6.830;2023-05-10T10:50:14;7.82;;;4.05;;
45676;SDS011;31390;51.186;6.830;2023-05-10T10:52:42;4.68;;;2.78;;
45676;SDS011;31390;51.186;6.830;2023-05-10T10:55:10;6.85;;;3.47;;
45676;SDS011;31390;51.186;6.830;2023-05-10T11:03:31;5.72;;;3.08;;
45676;SDS011;31390;51.186;6.830;2023-05-10T11:08:09;5.43;;;2.92;;
45676;SDS011;31390;51.186;6.830;2023-05-10T11:10:36;6.10;;;3.20;;
45676;SDS011;31390;51.186;6.830;2023-05-10T11:13:03;6.93;;;3.13;;
45676;SDS011;31390;51.186;6.830;2023-05-10T11:15:31;5.10;;;3.38;;
45676;SDS011;31390;51.186;6.830;2023-05-10T11:17:58;6.32;;;3.42;;
45676;SDS011;31390;51.186;6.830;2023-05-10T11:20:28;6.38;;;3.13;;
45676;SDS011;31390;51.186;6.830;2023-05-10T11:23:10;5.95;;;2.85;;
45676;SDS011;31390;51.186;6.830;2023-05-10T11:25:40;5.63;;;3.28;;
45676;SDS011;31390;51.186;6.830;2023-05-10T11:28:07;6.03;;;3.35;;
45676;SDS011;31390;51.186;6.830;2023-05-10T11:30:34;4.97;;;3.13;;
45676;SDS011;31390;51.186;6.830;2023-05-10T11:33:00;5.95;;;3.17;;
45676;SDS011;31390;51.186;6.830;2023-05-10T11:35:27;6.22;;;3.67;;
45676;SDS011;31390;51.186;6.830;2023-05-10T11:37:54;6.97;;;3.88;;
45676;SDS011;31390;51.186;6.830;2023-05-10T11:40:23;7.30;;;3.25;;
45676;SDS011;31390;51.186;6.830;2023-05-10T11:42:50;6.55;;;3.53;;
45676;SDS011;31390;51.186;6.830;2023-05-10T11:45:17;7.60;;;3.92;;
45676;SDS011;31390;51.186;6.830;2023-05-10T11:47:43;7.82;;;4.00;;
45676;SDS011;31390;51.186;6.830;2023-05-10T11:50:10;6.78;;;3.80;;
45676;SDS011;31390;51.186;6.830;2023-05-10T11:52:37;6.88;;;3.60;;
45676;SDS011;31390;51.186;6.830;2023-05-10T11:55:04;6.38;;;3.72;;
45676;SDS011;31390;51.186;6.830;2023-05-10T11:57:30;7.55;;;3.95;;
45676;SDS011;31390;51.186;6.830;2023-05-10T11:59:57;5.13;;;3.10;;
45676;SDS011;31390;51.186;6.830;2023-05-10T12:02:24;6.22;;;3.35;;
45676;SDS011;31390;51.186;6.830;2023-05-10T12:04:51;6.07;;;3.15;;
45676;SDS011;31390;51.186;6.830;2023-05-10T12:07:17;8.38;;;4.15;;
45676;SDS011;31390;51.186;6.830;2023-05-10T12:09:44;4.75;;;3.20;;
45676;SDS011;31390;51.186;6.830;2023-05-10T12:12:17;6.20;;;3.55;;
45676;SDS011;31390;51.186;6.830;2023-05-10T12:14:43;5.65;;;3.20;;
45676;SDS011;31390;51.186;6.830;2023-05-10T12:17:13;6.03;;;3.30;;
45676;SDS011;31390;51.186;6.830;2023-05-10T12:19:40;6.53;;;3.85;;
45676;SDS011;31390;51.186;6.830;2023-05-10T12:22:07;7.00;;;3.63;;
45676;SDS011;31390;51.186;6.830;2023-05-10T12:24:34;6.70;;;3.38;;
45676;SDS011;31390;51.186;6.830;2023-05-10T12:27:04;6.35;;;3.67;;
45676;SDS011;31390;51.186;6.830;2023-05-10T12:29:31;6.70;;;3.40;;
45676;SDS011;31390;51.186;6.830;2023-05-10T12:31:58;5.82;;;3.63;;
45676;SDS011;31390;51.186;6.830;2023-05-10T12:34:32;7.07;;;3.80;;
45676;SDS011;31390;51.186;6.830;2023-05-10T12:36:59;6.72;;;3.85;;
45676;SDS011;31390;51.186;6.830;2023-05-10T12:39:26;8.93;;;4.35;;
45676;SDS011;31390;51.186;6.830;2023-05-10T12:42:03;7.22;;;4.10;;
45676;SDS011;31390;51.186;6.830;2023-05-10T12:44:29;8.15;;;3.83;;
45676;SDS011;31390;51.186;6.830;2023-05-10T12:46:56;9.15;;;4.47;;
45676;SDS011;31390;51.186;6.830;2023-05-10T12:49:23;8.10;;;4.28;;
45676;SDS011;31390;51.186;6.830;2023-05-10T12:51:49;8.90;;;4.22;;
45676;SDS011;31390;51.186;6.830;2023-05-10T12:54:16;9.15;;;3.70;;
45676;SDS011;31390;51.186;6.830;2023-05-10T12:56:42;7.40;;;3.88;;
45676;SDS011;31390;51.186;6.830;2023-05-10T12:59:09;9.05;;;4.63;;
45676;SDS011;31390;51.186;6.830;2023-05-10T13:01:35;8.88;;;4.47;;
45676;SDS011;31390;51.186;6.830;2023-05-10T13:04:02;7.50;;;3.70;;
45676;SDS011;31390;51.186;6.830;2023-05-10T13:06:28;8.45;;;4.28;;
45676;SDS011;31390;51.186;6.830;2023-05-10T13:08:55;8.73;;;4.13;;
45676;SDS011;31390;51.186;6.830;2023-05-10T13:11:23;6.57;;;3.63;;
45676;SDS011;31390;51.186;6.830;2023-05-10T13:13:49;8.48;;;3.88;;
45676;SDS011;31390;51.186;6.830;2023-05-10T13:16:16;9.82;;;5.05;;
45676;SDS011;31390;51.186;6.830;2023-05-10T13:18:42;6.88;;;3.90;;
45676;SDS011;31390;51.186;6.830;2023-05-10T13:21:09;7.07;;;3.78;;
45676;SDS011;31390;51.186;6.830;2023-05-10T13:23:35;8.10;;;4.18;;
45676;SDS011;31390;51.186;6.830;2023-05-10T13:26:02;8.00;;;4.38;;
45676;SDS011;31390;51.186;6.830;2023-05-10T13:28:28;7.22;;;3.95;;
45676;SDS011;31390;51.186;6.830;2023-05-10T13:30:56;8.50;;;4.00;;
45676;SDS011;31390;51.186;6.830;2023-05-10T13:33:23;6.68;;;3.63;;
45676;SDS011;31390;51.186;6.830;2023-05-10T13:35:49;7.90;;;4.03;;
45676;SDS011;31390;51.186;6.830;2023-05-10T13:38:16;7.35;;;3.30;;
45676;SDS011;31390;51.186;6.830;2023-05-10T13:40:42;8.27;;;4.00;;
45676;SDS011;31390;51.186;6.830;2023-05-10T13:43:09;10.40;;;4.50;;
45676;SDS011;31390;51.186;6.830;2023-05-10T13:45:35;10.70;;;4.45;;
45676;SDS011;31390;51.186;6.830;2023-05-10T13:48:02;8.00;;;4.32;;
45676;SDS011;31390;51.186;6.830;2023-05-10T13:50:28;10.50;;;4.15;;
45676;SDS011;31390;51.186;6.830;2023-05-10T13:52:55;8.55;;;4.03;;
45676;SDS011;31390;51.186;6.830;2023-05-10T13:55:21;6.45;;;3.00;;
45676;SDS011;31390;51.186;6.830;2023-05-10T13:57:48;7.60;;;3.17;;
45676;SDS011;31390;51.186;6.830;2023-05-10T14:00:15;4.90;;;2.60;;
45676;SDS011;31390;51.186;6.830;2023-05-10T14:02:42;5.15;;;2.88;;
45676;SDS011;31390;51.186;6.830;2023-05-10T14:05:09;3.28;;;1.88;;
45676;SDS011;31390;51.186;6.830;2023-05-10T14:07:35;4.30;;;2.58;;
45676;SDS011;31390;51.186;6.830;2023-05-10T14:10:02;5.43;;;2.25;;
45676;SDS011;31390;51.186;6.830;2023-05-10T14:12:29;4.53;;;2.63;;
45676;SDS011;31390;51.186;6.830;2023-05-10T14:14:55;4.72;;;2.38;;
45676;SDS011;31390;51.186;6.830;2023-05-10T14:17:22;2.95;;;1.95;;
45676;SDS011;31390;51.186;6.830;2023-05-10T14:19:48;4.00;;;2.30;;
45676;SDS011;31390;51.186;6.830;2023-05-10T14:22:15;3.70;;;2.38;;
45676;SDS011;31390;51.186;6.830;2023-05-10T14:24:42;5.93;;;2.35;;
45676;SDS011;31390;51.186;6.830;2023-05-10T14:27:12;3.83;;;2.30;;
45676;SDS011;31390;51.186;6.830;2023-05-10T14:29:39;5.40;;;3.00;;
45676;SDS011;31390;51.186;6.830;2023-05-10T14:32:05;5.00;;;2.90;;
45676;SDS011;31390;51.186;6.830;2023-05-10T14:34:32;5.13;;;2.38;;
45676;SDS011;31390;51.186;6.830;2023-05-10T14:36:59;5.72;;;2.63;;
45676;SDS011;31390;51.186;6.830;2023-05-10T14:39:25;4.47;;;2.97;;
45676;SDS011;31390;51.186;6.830;2023-05-10T14:41:55;4.47;;;2.20;;
45676;SDS011;31390;51.186;6.830;2023-05-10T14:44:22;4.25;;;2.40;;
45676;SDS011;31390;51.186;6.830;2023-05-10T14:46:50;5.13;;;2.63;;
45676;SDS011;31390;51.186;6.830;2023-05-10T14:49:16;5.22;;;2.50;;
45676;SDS011;31390;51.186;6.830;2023-05-10T14:51:43;5.60;;;2.63;;
45676;SDS011;31390;51.186;6.830;2023-05-10T14:54:11;4.03;;;2.22;;
45676;SDS011;31390;51.186;6.830;2023-05-10T14:56:37;4.35;;;2.60;;
45676;SDS011;31390;51.186;6.830;2023-05-10T14:59:04;4.85;;;2.58;;
45676;SDS011;31390;51.186;6.830;2023-05-10T15:01:31;5.70;;;2.65;;
45676;SDS011;31390;51.186;6.830;2023-05-10T15:03:59;5.25;;;2.47;;
45676;SDS011;31390;51.186;6.830;2023-05-10T15:06:30;4.72;;;2.42;;
45676;SDS011;31390;51.186;6.830;2023-05-10T15:08:57;5.43;;;2.20;;
45676;SDS011;31390;51.186;6.830;2023-05-10T15:11:24;2.83;;;1.95;;
45676;SDS011;31390;51.186;6.830;2023-05-10T15:13:50;4.30;;;2.20;;
45676;SDS011;31390;51.186;6.830;2023-05-10T15:16:16;3.83;;;1.90;;
45676;SDS011;31390;51.186;6.830;2023-05-10T15:18:43;3.90;;;2.28;;
45676;SDS011;31390;51.186;6.830;2023-05-10T15:21:10;4.10;;;2.33;;
45676;SDS011;31390;51.186;6.830;2023-05-10T15:23:36;4.03;;;2.00;;
45676;SDS011;31390;51.186;6.830;2023-05-10T15:26:03;4.30;;;2.40;;